createdAt,value
2018-09-08T00:01:18.952Z,22.90
2018-09-08T00:03:47.990Z,22.87
2018-09-08T00:06:21.900Z,23.20
2018-09-08T00:08:50.610Z,23.02
2018-09-08T00:11:21.745Z,22.87
2018-09-08T00:13:50.494Z,23.77
2018-09-08T00:16:27.470Z,23.38
2018-09-08T00:19:01.457Z,23.35
2018-09-08T00:21:36.192Z,22.73
2018-09-08T00:24:10.425Z,23.42
2018-09-08T00:26:38.372Z,23.57
2018-09-08T00:29:11.158Z,23.07
2018-09-08T00:31:40.042Z,24.15
2018-09-08T00:34:08.812Z,23.50
2018-09-08T00:36:37.789Z,25.00
2018-09-08T00:39:08.630Z,25.10
2018-09-08T00:41:37.365Z,24.80
2018-09-08T00:44:06.268Z,24.70
2018-09-08T00:46:34.982Z,24.85
2018-09-08T00:49:04.185Z,24.92
2018-09-08T00:51:32.890Z,24.95
2018-09-08T00:54:01.787Z,27.52
2018-09-08T00:56:30.498Z,28.23
2018-09-08T00:59:05.022Z,27.00
2018-09-08T01:01:36.695Z,27.87
2018-09-08T01:04:05.533Z,26.62
2018-09-08T01:06:34.408Z,28.57
2018-09-08T01:09:04.401Z,26.50
2018-09-08T01:11:33.344Z,25.50
2018-09-08T01:14:02.062Z,28.20
2018-09-08T01:16:30.944Z,27.45
2018-09-08T01:18:59.685Z,27.80
2018-09-08T01:21:31.455Z,28.00
2018-09-08T01:24:00.913Z,27.75
2018-09-08T01:26:29.556Z,26.07
2018-09-08T01:28:58.561Z,27.32
2018-09-08T01:31:28.160Z,26.25
2018-09-08T01:33:56.749Z,26.75
2018-09-08T01:36:25.890Z,27.10
2018-09-08T01:38:54.580Z,26.68
2018-09-08T01:41:23.277Z,26.25
2018-09-08T01:43:52.665Z,27.70
2018-09-08T01:46:21.396Z,29.15
2018-09-08T01:48:50.139Z,29.07
2018-09-08T01:51:19.041Z,28.37
2018-09-08T01:53:47.744Z,28.83
2018-09-08T01:56:16.606Z,28.90
2018-09-08T01:58:45.656Z,29.18
2018-09-08T02:01:14.629Z,27.73
2018-09-08T02:03:43.335Z,24.63
2018-09-08T02:06:12.085Z,24.27
2018-09-08T02:08:40.940Z,23.70
2018-09-08T02:11:09.637Z,22.60
2018-09-08T02:13:40.636Z,21.12
2018-09-08T02:16:09.267Z,21.62
2018-09-08T02:18:40.560Z,22.85
2018-09-08T02:21:09.713Z,21.47
2018-09-08T02:23:38.415Z,20.70
2018-09-08T02:26:08.990Z,20.35
2018-09-08T02:28:37.939Z,19.45
2018-09-08T02:31:08.805Z,18.10
2018-09-08T02:33:37.469Z,18.48
2018-09-08T02:36:07.700Z,16.60
2018-09-08T02:38:36.444Z,17.10
2018-09-08T02:41:05.318Z,16.93
2018-09-08T02:43:34.117Z,15.85
2018-09-08T02:46:02.842Z,16.45
2018-09-08T02:48:31.733Z,15.50
2018-09-08T02:50:59.230Z,14.87
2018-09-08T02:53:27.038Z,15.57
2018-09-08T02:55:54.491Z,15.18
2018-09-08T02:58:21.895Z,13.95
2018-09-08T03:00:49.446Z,12.35
2018-09-08T03:03:16.903Z,11.65
2018-09-08T03:05:44.349Z,11.13
2018-09-08T03:08:11.838Z,11.83
2018-09-08T03:10:39.342Z,11.05
2018-09-08T03:13:06.871Z,10.82
2018-09-08T03:15:34.363Z,10.95
2018-09-08T03:18:01.918Z,11.38
2018-09-08T03:20:29.491Z,11.38
2018-09-08T03:22:56.931Z,11.00
2018-09-08T03:25:24.505Z,11.78
2018-09-08T03:27:52.029Z,12.70
2018-09-08T03:30:19.519Z,11.83
2018-09-08T03:32:47.961Z,12.55
2018-09-08T03:35:15.442Z,14.38
2018-09-08T03:37:42.910Z,13.83
2018-09-08T03:40:10.501Z,14.90
2018-09-08T03:42:37.938Z,16.10
2018-09-08T03:45:05.358Z,17.57
2018-09-08T03:47:34.808Z,18.80
2018-09-08T03:50:02.283Z,19.00
2018-09-08T03:52:29.747Z,18.95
2018-09-08T03:54:57.251Z,21.02
2018-09-08T03:57:24.690Z,21.68
2018-09-08T03:59:52.114Z,20.70
2018-09-08T04:02:19.572Z,22.22
2018-09-08T04:04:50.761Z,22.40
2018-09-08T04:07:19.518Z,23.70
2018-09-08T04:09:48.221Z,24.30
2018-09-08T04:12:16.910Z,24.55
2018-09-08T04:14:45.655Z,26.07
2018-09-08T04:17:14.585Z,25.52
2018-09-08T04:19:43.265Z,26.02
2018-09-08T04:22:12.008Z,25.48
2018-09-08T04:24:40.674Z,23.90
2018-09-08T04:27:10.262Z,23.05
2018-09-08T04:29:39.000Z,23.50
2018-09-08T04:32:08.059Z,22.10
2018-09-08T04:34:37.164Z,21.23
2018-09-08T04:37:06.043Z,21.20
2018-09-08T04:39:34.897Z,20.95
2018-09-08T04:42:03.615Z,20.65
2018-09-08T04:44:32.461Z,19.02
2018-09-08T04:47:01.128Z,17.80
2018-09-08T04:49:29.885Z,17.92
2018-09-08T04:51:58.720Z,17.12
2018-09-08T04:54:27.467Z,17.27
2018-09-08T04:56:56.142Z,18.98
2018-09-08T04:59:25.028Z,21.87
2018-09-08T05:01:53.659Z,21.65
2018-09-08T05:04:23.478Z,21.87
2018-09-08T05:06:52.122Z,25.88
2018-09-08T05:09:21.109Z,25.93
2018-09-08T05:11:49.718Z,25.20
2018-09-08T05:14:18.502Z,25.32
2018-09-08T05:16:47.450Z,24.77
2018-09-08T05:19:16.044Z,24.37
2018-09-08T05:21:44.860Z,24.47
2018-09-08T05:24:13.556Z,24.50
2018-09-08T05:26:42.226Z,25.32
2018-09-08T05:29:11.172Z,24.20
2018-09-08T05:31:39.985Z,23.83
2018-09-08T05:34:08.663Z,23.00
2018-09-08T05:36:37.351Z,20.70
2018-09-08T05:39:06.955Z,20.08
2018-09-08T05:41:36.061Z,20.75
2018-09-08T05:44:04.879Z,20.32
2018-09-08T05:46:33.531Z,21.00
2018-09-08T05:49:02.256Z,19.05
2018-09-08T05:51:30.981Z,17.77
2018-09-08T05:53:59.762Z,17.48
2018-09-08T05:56:28.420Z,16.97
2018-09-08T05:58:59.071Z,15.30
2018-09-08T06:01:27.947Z,16.10
2018-09-08T06:03:56.671Z,14.03
2018-09-08T06:06:27.626Z,16.67
2018-09-08T06:08:56.484Z,15.58
2018-09-08T06:11:25.359Z,17.98
2018-09-08T06:13:57.698Z,16.02
2018-09-08T06:16:29.124Z,16.15
2018-09-08T06:18:57.929Z,16.62
2018-09-08T06:21:26.633Z,16.45
2018-09-08T06:23:55.523Z,16.95
2018-09-08T06:26:24.489Z,16.27
2018-09-08T06:28:53.331Z,16.37
2018-09-08T06:31:22.178Z,16.40
2018-09-08T06:33:51.246Z,15.07
2018-09-08T06:36:19.987Z,14.87
2018-09-08T06:38:48.827Z,13.90
2018-09-08T06:41:17.487Z,14.30
2018-09-08T06:43:46.260Z,14.30
2018-09-08T06:46:15.188Z,14.47
2018-09-08T06:48:45.380Z,14.40
2018-09-08T06:51:14.269Z,14.78
2018-09-08T06:53:42.982Z,15.77
2018-09-08T06:56:11.851Z,15.08
2018-09-08T06:58:40.540Z,13.60
2018-09-08T07:01:09.366Z,14.10
2018-09-08T07:03:38.582Z,13.78
2018-09-08T07:06:07.457Z,13.50
2018-09-08T07:08:36.323Z,12.55
2018-09-08T07:11:05.124Z,13.00
2018-09-08T07:13:34.154Z,12.85
2018-09-08T07:16:03.178Z,13.28
2018-09-08T07:18:31.922Z,11.95
2018-09-08T07:21:00.932Z,12.60
2018-09-08T07:23:29.772Z,13.10
2018-09-08T07:25:58.487Z,12.50
2018-09-08T07:28:27.217Z,14.07
2018-09-08T07:30:56.048Z,12.68
2018-09-08T07:33:24.773Z,12.82
2018-09-08T07:35:53.481Z,12.43
2018-09-08T07:38:22.218Z,12.60
2018-09-08T07:40:54.267Z,12.53
2018-09-08T07:43:22.946Z,12.57
2018-09-08T07:45:51.913Z,13.40
2018-09-08T07:48:20.524Z,14.70
2018-09-08T07:50:49.192Z,14.18
2018-09-08T07:53:19.342Z,13.68
2018-09-08T07:55:48.055Z,13.98
2018-09-08T07:58:16.761Z,14.55
2018-09-08T08:00:45.466Z,15.28
2018-09-08T08:03:14.469Z,15.32
2018-09-08T08:05:43.275Z,14.95
2018-09-08T08:08:11.932Z,14.50
2018-09-08T08:10:40.700Z,15.98
2018-09-08T08:13:09.456Z,15.88
2018-09-08T08:15:40.281Z,16.40
2018-09-08T08:18:13.295Z,16.15
2018-09-08T08:20:45.208Z,15.63
2018-09-08T08:23:19.889Z,16.75
2018-09-08T08:25:48.802Z,16.15
2018-09-08T08:28:17.810Z,15.32
2018-09-08T08:30:49.188Z,16.73
2018-09-08T08:33:17.829Z,17.90
2018-09-08T08:35:46.570Z,18.60
2018-09-08T08:38:15.434Z,19.30
2018-09-08T08:40:44.114Z,17.87
2018-09-08T08:43:17.679Z,16.45
2018-09-08T08:45:47.400Z,15.43
2018-09-08T08:48:16.128Z,14.33
2018-09-08T08:50:55.745Z,14.83
2018-09-08T08:53:35.592Z,15.03
2018-09-08T08:56:04.534Z,13.88
2018-09-08T08:58:37.070Z,13.27
2018-09-08T09:01:05.862Z,14.83
2018-09-08T09:03:35.693Z,14.07
2018-09-08T09:06:04.854Z,14.95
2018-09-08T09:08:34.229Z,14.75
2018-09-08T09:11:02.546Z,16.32
2018-09-08T09:13:32.007Z,16.27
2018-09-08T09:16:01.732Z,15.63
2018-09-08T09:18:41.968Z,15.28
2018-09-08T09:21:21.535Z,15.63
2018-09-08T09:25:01.797Z,14.40
2018-09-08T09:27:31.767Z,14.80
2018-09-08T09:30:00.741Z,14.10
2018-09-08T09:32:31.683Z,13.13
2018-09-08T09:35:00.450Z,13.55
2018-09-08T09:37:29.165Z,11.43
2018-09-08T09:39:58.567Z,10.55
2018-09-08T09:42:27.302Z,10.77
2018-09-08T09:44:56.277Z,10.28
2018-09-08T09:47:24.995Z,11.78
2018-09-08T09:49:53.679Z,10.78
2018-09-08T09:52:22.537Z,9.75
2018-09-08T09:54:51.784Z,10.45
2018-09-08T09:57:20.502Z,10.67
2018-09-08T09:59:49.335Z,10.18
2018-09-08T10:02:48.334Z,11.50
2018-09-08T10:05:18.507Z,11.00
2018-09-08T10:07:47.414Z,10.75
2018-09-08T10:10:17.481Z,9.50
2018-09-08T10:12:46.311Z,10.53
2018-09-08T10:15:16.609Z,10.05
2018-09-08T10:17:47.545Z,9.65
2018-09-08T10:20:17.616Z,8.23
2018-09-08T10:22:46.268Z,7.50
2018-09-08T10:26:45.043Z,8.30
2018-09-08T10:29:13.684Z,6.40
2018-09-08T10:31:42.539Z,7.90
2018-09-08T10:34:11.166Z,7.05
2018-09-08T10:36:39.844Z,6.90
2018-09-08T10:39:08.518Z,6.67
2018-09-08T10:41:37.224Z,6.83
2018-09-08T10:44:05.939Z,5.92
2018-09-08T10:46:34.654Z,5.30
2018-09-08T10:49:03.494Z,5.75
2018-09-08T10:53:39.876Z,5.47
2018-09-08T10:56:10.864Z,4.92
2018-09-08T10:58:39.548Z,5.80
2018-09-08T11:01:08.214Z,4.47
2018-09-08T11:03:38.614Z,4.58
2018-09-08T11:06:07.443Z,3.95
2018-09-08T11:08:37.662Z,4.20
2018-09-08T11:11:06.886Z,4.50
2018-09-08T11:13:35.555Z,4.25
2018-09-08T11:16:04.186Z,4.87
2018-09-08T11:18:32.928Z,4.33
2018-09-08T11:21:01.478Z,4.97
2018-09-08T11:23:30.328Z,4.50
2018-09-08T11:25:59.047Z,4.12
2018-09-08T11:28:27.827Z,4.50
2018-09-08T11:30:56.703Z,5.08
2018-09-08T11:33:25.710Z,5.40
2018-09-08T11:35:54.387Z,4.50
2018-09-08T11:38:23.229Z,3.72
2018-09-08T11:40:51.878Z,4.10
2018-09-08T11:43:20.552Z,4.50
2018-09-08T11:45:49.250Z,4.97
2018-09-08T11:48:19.187Z,4.08
2018-09-08T11:50:51.552Z,4.22
2018-09-08T11:53:21.156Z,3.98
2018-09-08T11:55:50.334Z,4.03
2018-09-08T11:58:30.011Z,3.92
2018-09-08T12:01:04.331Z,3.27
2018-09-08T12:03:33.304Z,3.80
2018-09-08T12:06:01.996Z,3.98
2018-09-08T12:08:30.715Z,4.10
2018-09-08T12:10:59.464Z,4.00
2018-09-08T12:13:28.189Z,4.05
2018-09-08T12:15:56.921Z,4.70
2018-09-08T12:18:25.678Z,3.80
2018-09-08T12:20:54.496Z,3.70
2018-09-08T12:23:23.244Z,3.67
2018-09-08T12:25:51.910Z,3.58
2018-09-08T12:28:24.099Z,3.30
2018-09-08T12:30:52.936Z,2.92
2018-09-08T12:33:24.414Z,3.08
2018-09-08T12:35:56.462Z,3.05
2018-09-08T12:45:09.315Z,3.40
2018-09-08T12:47:38.026Z,3.30
2018-09-08T12:50:07.010Z,3.12
2018-09-08T12:52:35.978Z,3.05
2018-09-08T12:55:04.826Z,2.80
2018-09-08T12:57:33.674Z,2.70
2018-09-08T13:00:02.390Z,3.05
2018-09-08T13:02:31.295Z,2.80
2018-09-08T13:05:00.010Z,3.07
2018-09-08T13:07:28.737Z,2.85
2018-09-08T13:09:57.539Z,2.72
2018-09-08T13:12:26.400Z,3.72
2018-09-08T13:14:55.004Z,2.70
2018-09-08T13:17:30.466Z,2.52
2018-09-08T13:19:59.152Z,2.70
2018-09-08T13:22:27.935Z,2.70
2018-09-08T13:24:56.943Z,2.70
2018-09-08T13:27:25.685Z,2.33
2018-09-08T13:29:56.667Z,2.58
2018-09-08T13:32:25.733Z,2.57
2018-09-08T13:34:54.833Z,2.85
2018-09-08T13:37:23.526Z,2.50
2018-09-08T13:39:52.240Z,2.47
2018-09-08T13:42:23.058Z,2.60
2018-09-08T13:44:51.967Z,3.33
2018-09-08T13:47:20.786Z,3.15
2018-09-08T13:49:49.492Z,2.60
2018-09-08T13:52:18.444Z,2.80
2018-09-08T13:54:47.511Z,2.22
2018-09-08T13:57:16.338Z,2.90
2018-09-08T13:59:45.067Z,2.60
2018-09-08T14:02:13.831Z,3.23
2018-09-08T14:04:43.811Z,3.17
2018-09-08T14:07:12.608Z,2.47
2018-09-08T14:09:41.542Z,2.98
2018-09-08T14:12:10.336Z,2.80
2018-09-08T14:14:41.325Z,3.37
2018-09-08T14:17:10.047Z,2.70
2018-09-08T14:19:38.790Z,3.22
2018-09-08T14:22:07.554Z,2.95
2018-09-08T14:24:36.261Z,2.70
2018-09-08T14:27:06.178Z,3.33
2018-09-08T14:29:34.997Z,3.20
2018-09-08T14:32:03.694Z,2.90
2018-09-08T14:34:32.370Z,3.02
2018-09-08T14:37:01.157Z,2.47
2018-09-08T14:39:30.090Z,3.25
2018-09-08T14:41:58.844Z,5.00
2018-09-08T14:44:27.434Z,3.35
2018-09-08T14:46:56.070Z,2.95
2018-09-08T14:49:25.803Z,2.60
2018-09-08T14:51:54.521Z,2.60
2018-09-08T14:54:23.201Z,3.98
2018-09-08T14:56:51.922Z,4.27
2018-09-08T14:59:20.609Z,4.17
2018-09-08T15:01:49.270Z,2.93
2018-09-08T15:04:18.109Z,3.33
2018-09-08T15:06:46.835Z,5.97
2018-09-08T15:09:15.530Z,3.27
2018-09-08T15:11:44.226Z,6.67
2018-09-08T15:14:12.921Z,6.87
2018-09-08T15:16:41.899Z,3.10
2018-09-08T15:19:10.590Z,2.92
2018-09-08T15:21:39.222Z,2.67
2018-09-08T15:24:07.812Z,3.08
2018-09-08T15:26:36.494Z,3.45
2018-09-08T15:29:05.289Z,2.87
2018-09-08T15:31:35.582Z,3.50
2018-09-08T15:34:04.217Z,3.12
2018-09-08T15:36:32.958Z,3.42
2018-09-08T15:39:01.765Z,3.43
2018-09-08T15:41:30.842Z,3.90
2018-09-08T15:43:59.645Z,3.15
2018-09-08T15:46:28.331Z,2.95
2018-09-08T15:48:57.050Z,2.63
2018-09-08T15:51:25.825Z,4.87
2018-09-08T15:53:55.342Z,3.30
2018-09-08T15:56:24.146Z,3.33
2018-09-08T15:58:52.850Z,3.30
2018-09-08T16:01:21.642Z,3.07
2018-09-08T16:03:50.332Z,3.02
2018-09-08T16:06:19.596Z,2.85
2018-09-08T16:08:48.303Z,3.20
2018-09-08T16:11:17.985Z,3.10
2018-09-08T16:13:46.685Z,3.60
2018-09-08T16:16:18.453Z,2.92
2018-09-08T16:18:47.319Z,3.70
2018-09-08T16:21:16.490Z,4.78
2018-09-08T16:23:45.304Z,3.30
2018-09-08T16:26:14.070Z,2.87
2018-09-08T16:28:43.535Z,4.72
2018-09-08T16:31:12.430Z,3.33
2018-09-08T16:33:41.099Z,3.33
2018-09-08T16:36:09.825Z,3.42
2018-09-08T16:38:38.955Z,4.37
2018-09-08T16:41:07.968Z,4.25
2018-09-08T16:43:36.689Z,3.30
2018-09-08T16:46:05.890Z,3.57
2018-09-08T16:48:34.546Z,3.60
2018-09-08T16:51:03.195Z,3.90
2018-09-08T16:53:32.108Z,4.00
2018-09-08T16:56:00.830Z,3.40
2018-09-08T16:58:29.493Z,3.58
2018-09-08T17:00:58.185Z,4.10
2018-09-08T17:03:26.817Z,5.33
2018-09-08T17:05:56.903Z,4.40
2018-09-08T17:08:25.691Z,8.98
2018-09-08T17:11:00.857Z,4.97
2018-09-08T17:13:29.591Z,4.13
2018-09-08T17:15:58.471Z,5.35
2018-09-08T17:18:27.526Z,4.90
2018-09-08T17:20:56.296Z,5.30
2018-09-08T17:23:25.069Z,4.72
2018-09-08T17:25:53.899Z,4.95
2018-09-08T17:28:22.695Z,5.20
2018-09-08T17:30:51.532Z,5.53
2018-09-08T17:33:26.318Z,7.17
2018-09-08T17:35:55.462Z,5.78
2018-09-08T17:38:24.288Z,5.42
2018-09-08T17:40:54.823Z,5.65
2018-09-08T17:43:23.630Z,8.23
2018-09-08T17:45:52.855Z,5.28
2018-09-08T17:48:21.890Z,6.10
2018-09-08T17:50:52.649Z,5.75
2018-09-08T17:53:21.385Z,5.95
2018-09-08T17:55:50.095Z,6.10
2018-09-08T17:58:22.429Z,5.97
2018-09-08T18:00:51.148Z,8.00
2018-09-08T18:03:20.193Z,6.40
2018-09-08T18:05:49.171Z,6.10
2018-09-08T18:08:19.161Z,6.80
2018-09-08T18:10:48.205Z,5.53
2018-09-08T18:13:17.190Z,5.78
2018-09-08T18:15:45.982Z,4.67
2018-09-08T18:18:14.731Z,4.87
2018-09-08T18:20:43.378Z,5.12
2018-09-08T18:23:12.284Z,5.33
2018-09-08T18:25:47.604Z,5.53
2018-09-08T18:28:16.856Z,5.05
2018-09-08T18:30:45.602Z,5.33
2018-09-08T18:33:14.530Z,13.32
2018-09-08T18:35:43.242Z,9.65
2018-09-08T18:38:11.932Z,7.07
2018-09-08T18:40:40.613Z,5.53
2018-09-08T18:43:09.307Z,6.13
2018-09-08T18:45:38.148Z,5.65
2018-09-08T18:48:07.042Z,6.85
2018-09-08T18:50:35.713Z,8.47
2018-09-08T18:53:05.564Z,8.33
2018-09-08T18:55:39.807Z,8.63
2018-09-08T18:58:23.604Z,8.60
2018-09-08T19:01:00.024Z,9.23
2018-09-08T19:03:29.721Z,10.18
2018-09-08T19:05:58.890Z,9.33
2018-09-08T19:08:32.785Z,10.15
2018-09-08T19:11:01.852Z,10.80
2018-09-08T19:13:30.448Z,9.50
2018-09-08T19:15:59.764Z,10.25
2018-09-08T19:18:29.316Z,10.75
2018-09-08T19:21:01.795Z,10.78
2018-09-08T19:23:30.535Z,10.40
2018-09-08T19:25:59.304Z,16.48
2018-09-08T19:28:28.101Z,38.58
2018-09-08T19:31:06.911Z,57.48
2018-09-08T19:33:36.348Z,53.10
2018-09-08T19:36:13.523Z,40.08
2018-09-08T19:38:47.433Z,18.03
2018-09-08T19:41:23.282Z,14.68
2018-09-08T19:43:56.626Z,11.95
2018-09-08T19:46:31.534Z,12.10
2018-09-08T19:49:00.553Z,8.73
2018-09-08T19:51:29.263Z,7.55
2018-09-08T19:53:59.313Z,8.93
2018-09-08T19:56:33.253Z,8.33
2018-09-08T19:59:06.171Z,6.45
2018-09-08T20:01:43.007Z,7.17
2018-09-08T20:04:22.861Z,7.83
2018-09-08T20:06:58.084Z,7.53
2018-09-08T20:09:37.383Z,7.97
2018-09-08T20:12:15.238Z,7.30
2018-09-08T20:14:53.848Z,6.15
2018-09-08T20:17:26.114Z,6.20
2018-09-08T20:20:02.064Z,5.85
2018-09-08T20:22:34.920Z,5.30
2018-09-08T20:25:04.267Z,5.20
2018-09-08T20:29:03.378Z,6.00
2018-09-08T20:31:32.410Z,5.10
2018-09-08T20:34:03.413Z,5.60
2018-09-08T20:36:32.053Z,5.70
2018-09-08T20:39:01.064Z,5.53
2018-09-08T20:41:30.366Z,8.85
2018-09-08T20:43:59.398Z,6.00
2018-09-08T20:46:29.269Z,5.90
2018-09-08T20:48:59.892Z,5.33
2018-09-08T20:51:32.814Z,4.75
2018-09-08T20:54:01.685Z,5.50
2018-09-08T20:56:31.498Z,5.53
2018-09-08T20:59:09.496Z,5.95
2018-09-08T21:01:39.023Z,5.80
2018-09-08T21:04:08.049Z,4.95
2018-09-08T21:06:36.763Z,5.00
2018-09-08T21:13:02.864Z,5.00
2018-09-08T21:15:31.811Z,6.03
2018-09-08T21:18:01.538Z,4.47
2018-09-08T21:21:47.065Z,5.10
2018-09-08T21:24:16.296Z,5.20
2018-09-08T21:26:45.281Z,5.47
2018-09-08T21:29:14.370Z,10.53
2018-09-08T21:31:45.167Z,5.42
2018-09-08T21:34:14.960Z,4.78
2018-09-08T21:36:48.045Z,5.80
2018-09-08T21:39:19.884Z,5.60
2018-09-08T21:41:49.309Z,5.62
2018-09-08T21:44:19.725Z,5.95
2018-09-08T21:46:55.902Z,5.75
2018-09-08T21:49:27.310Z,6.00
2018-09-08T21:52:04.012Z,6.63
2018-09-08T21:54:41.873Z,6.83
2018-09-08T21:57:12.194Z,6.20
2018-09-08T21:59:47.408Z,6.05
2018-09-08T22:02:21.976Z,5.70
2018-09-08T22:04:51.758Z,5.30
2018-09-08T22:07:21.533Z,5.78
2018-09-08T22:09:50.583Z,5.50
2018-09-08T22:12:19.361Z,5.58
2018-09-08T22:14:48.983Z,5.12
2018-09-08T22:17:21.902Z,5.25
2018-09-08T22:19:53.363Z,5.60
2018-09-08T22:22:22.118Z,5.30
2018-09-08T22:24:52.247Z,5.20
2018-09-08T22:27:21.772Z,5.30
2018-09-08T22:29:51.582Z,6.12
2018-09-08T22:32:22.146Z,5.95
2018-09-08T22:34:50.792Z,21.73
2018-09-08T22:37:22.752Z,5.72
2018-09-08T22:39:51.652Z,5.37
2018-09-08T22:42:22.391Z,6.07
2018-09-08T22:44:51.714Z,5.40
2018-09-08T22:47:20.271Z,5.23
2018-09-08T22:49:53.686Z,5.20
2018-09-08T22:52:27.627Z,5.20
2018-09-08T22:55:01.318Z,5.70
2018-09-08T22:57:32.550Z,5.65
2018-09-08T23:00:03.292Z,5.53
2018-09-08T23:02:31.929Z,5.42
2018-09-08T23:05:01.609Z,5.70
2018-09-08T23:07:35.002Z,5.45
2018-09-08T23:10:05.141Z,5.50
2018-09-08T23:12:34.670Z,5.65
2018-09-08T23:15:03.387Z,5.42
2018-09-08T23:17:32.410Z,5.45
2018-09-08T23:20:07.751Z,5.50
2018-09-08T23:22:42.822Z,5.47
2018-09-08T23:25:18.474Z,5.37
2018-09-08T23:27:57.382Z,5.30
2018-09-08T23:30:28.310Z,5.47
2018-09-08T23:32:59.968Z,5.12
2018-09-08T23:35:28.839Z,5.35
2018-09-08T23:37:57.511Z,5.45
2018-09-08T23:40:31.448Z,5.70
2018-09-08T23:43:00.435Z,5.60
2018-09-08T23:45:29.157Z,5.25
2018-09-08T23:47:59.276Z,5.70
2018-09-08T23:50:28.196Z,5.50
2018-09-08T23:52:56.858Z,5.75
2018-09-08T23:55:25.669Z,5.83
2018-09-08T23:57:54.488Z,5.27
